Aroya, Colorado
Current Conditions -  °F | °C
As of 1:55 AM on Wednesday 22 Oct 2014 (Local Time) from KLIC Reporting Station
Few Clouds Few Clouds  
Wind Chill:   Ceiling: Unl
Heat Index:   Visibility: 10mi
Dew Point:   Wind: 6mph
Humidity: 86%   Direction: 340°NNW
Pressure: 30"   Gusts: NA
Location:  38.8543°N, 103.125°W
Report Text: KLIC 220755Z AUTO 34005KT 10SM FEW120 08/06 A3000 RMK AO2 SLP104 T00780056
Loading
Personal Weather Stations






























Interactive Weather Map
Tropical Storm Tracking
New forecast layout! Learn more

10-Day Weather Forecast

Advertisements
Track Severe Weather on mobile